sensor_id;sensor_type;location;lat;lon;timestamp;pressure;altitude;pressure_sealevel;temperature;humidity
34506;BME280;20748;42.632;23.198;2023-04-26T00:00:16;91112.88;;;7.60;100.00
34506;BME280;20748;42.632;23.198;2023-04-26T00:02:48;91112.56;;;7.61;100.00
34506;BME280;20748;42.632;23.198;2023-04-26T00:05:23;91107.69;;;7.60;100.00
34506;BME280;20748;42.632;23.198;2023-04-26T00:07:56;91103.22;;;7.51;100.00
34506;BME280;20748;42.632;23.198;2023-04-26T00:10:29;91099.25;;;7.54;100.00
34506;BME280;20748;42.632;23.198;2023-04-26T00:13:02;91092.06;;;7.51;100.00
34506;BME280;20748;42.632;23.198;2023-04-26T00:15:35;91087.94;;;7.50;100.00
34506;BME280;20748;42.632;23.198;2023-04-26T00:18:07;91088.53;;;7.47;100.00
34506;BME280;20748;42.632;23.198;2023-04-26T00:20:40;91091.28;;;7.42;100.00
34506;BME280;20748;42.632;23.198;2023-04-26T00:23:12;91088.06;;;7.36;100.00
34506;BME280;20748;42.632;23.198;2023-04-26T00:25:45;91082.97;;;7.22;100.00
34506;BME280;20748;42.632;23.198;2023-04-26T00:28:17;91082.47;;;7.20;100.00
34506;BME280;20748;42.632;23.198;2023-04-26T00:30:50;91060.00;;;7.06;100.00
34506;BME280;20748;42.632;23.198;2023-04-26T00:33:22;91075.72;;;7.10;100.00
34506;BME280;20748;42.632;23.198;2023-04-26T00:35:55;91084.13;;;7.07;100.00
34506;BME280;20748;42.632;23.198;2023-04-26T00:38:27;91078.41;;;6.96;100.00
34506;BME280;20748;42.632;23.198;2023-04-26T00:40:59;91071.94;;;6.84;100.00
34506;BME280;20748;42.632;23.198;2023-04-26T00:43:32;91080.91;;;6.78;100.00
34506;BME280;20748;42.632;23.198;2023-04-26T00:46:05;91083.38;;;6.83;100.00
34506;BME280;20748;42.632;23.198;2023-04-26T00:48:38;91093.13;;;6.78;100.00
34506;BME280;20748;42.632;23.198;2023-04-26T00:51:10;91077.03;;;6.67;100.00
34506;BME280;20748;42.632;23.198;2023-04-26T00:53:43;91078.88;;;6.66;100.00
34506;BME280;20748;42.632;23.198;2023-04-26T00:56:16;91081.22;;;6.77;100.00
34506;BME280;20748;42.632;23.198;2023-04-26T00:58:50;91072.75;;;6.62;100.00
34506;BME280;20748;42.632;23.198;2023-04-26T01:01:23;91093.75;;;6.61;100.00
34506;BME280;20748;42.632;23.198;2023-04-26T01:03:55;91083.34;;;6.52;100.00
34506;BME280;20748;42.632;23.198;2023-04-26T01:06:32;91096.59;;;6.50;100.00
34506;BME280;20748;42.632;23.198;2023-04-26T01:09:05;91095.38;;;6.48;100.00
34506;BME280;20748;42.632;23.198;2023-04-26T01:11:41;91087.88;;;6.46;100.00
34506;BME280;20748;42.632;23.198;2023-04-26T01:14:14;91066.97;;;6.42;100.00
34506;BME280;20748;42.632;23.198;2023-04-26T01:16:48;91067.91;;;6.47;100.00
34506;BME280;20748;42.632;23.198;2023-04-26T01:19:21;91066.88;;;6.48;100.00
34506;BME280;20748;42.632;23.198;2023-04-26T01:21:54;91055.84;;;6.42;100.00
34506;BME280;20748;42.632;23.198;2023-04-26T01:24:27;91062.41;;;6.25;100.00
34506;BME280;20748;42.632;23.198;2023-04-26T01:27:01;91072.59;;;6.22;100.00
34506;BME280;20748;42.632;23.198;2023-04-26T01:29:35;91079.44;;;6.17;100.00
34506;BME280;20748;42.632;23.198;2023-04-26T01:32:08;91078.72;;;6.03;100.00
34506;BME280;20748;42.632;23.198;2023-04-26T01:34:41;91090.03;;;6.07;100.00
34506;BME280;20748;42.632;23.198;2023-04-26T01:37:15;91095.66;;;6.09;100.00
34506;BME280;20748;42.632;23.198;2023-04-26T01:39:48;91099.59;;;6.07;100.00
34506;BME280;20748;42.632;23.198;2023-04-26T01:42:20;91081.91;;;5.86;100.00
34506;BME280;20748;42.632;23.198;2023-04-26T01:44:53;91099.31;;;5.94;100.00
34506;BME280;20748;42.632;23.198;2023-04-26T01:47:26;91094.03;;;5.99;100.00
34506;BME280;20748;42.632;23.198;2023-04-26T01:49:59;91096.91;;;5.98;100.00
34506;BME280;20748;42.632;23.198;2023-04-26T01:52:32;91086.00;;;6.01;100.00
34506;BME280;20748;42.632;23.198;2023-04-26T01:55:06;91078.72;;;5.89;100.00
34506;BME280;20748;42.632;23.198;2023-04-26T01:57:38;91073.72;;;5.93;100.00
34506;BME280;20748;42.632;23.198;2023-04-26T02:00:11;91073.72;;;5.93;100.00
34506;BME280;20748;42.632;23.198;2023-04-26T02:02:46;91072.38;;;5.95;100.00
34506;BME280;20748;42.632;23.198;2023-04-26T02:05:19;91061.25;;;5.95;100.00
34506;BME280;20748;42.632;23.198;2023-04-26T02:07:51;91065.00;;;6.02;100.00
34506;BME280;20748;42.632;23.198;2023-04-26T02:10:25;91073.78;;;6.01;100.00
34506;BME280;20748;42.632;23.198;2023-04-26T02:12:57;91069.59;;;5.91;100.00
34506;BME280;20748;42.632;23.198;2023-04-26T02:15:29;91062.81;;;5.82;100.00
34506;BME280;20748;42.632;23.198;2023-04-26T02:18:02;91061.94;;;5.86;100.00
34506;BME280;20748;42.632;23.198;2023-04-26T02:20:35;91053.81;;;5.79;100.00
34506;BME280;20748;42.632;23.198;2023-04-26T02:23:08;91069.78;;;5.95;100.00
34506;BME280;20748;42.632;23.198;2023-04-26T02:25:44;91063.84;;;5.95;100.00
34506;BME280;20748;42.632;23.198;2023-04-26T02:28:17;91068.44;;;5.98;100.00
34506;BME280;20748;42.632;23.198;2023-04-26T02:30:49;91067.69;;;5.97;100.00
34506;BME280;20748;42.632;23.198;2023-04-26T02:33:23;91062.50;;;5.97;100.00
34506;BME280;20748;42.632;23.198;2023-04-26T02:35:56;91062.78;;;6.10;100.00
34506;BME280;20748;42.632;23.198;2023-04-26T02:38:28;91061.91;;;6.14;100.00
34506;BME280;20748;42.632;23.198;2023-04-26T02:41:03;91059.69;;;6.08;100.00
34506;BME280;20748;42.632;23.198;2023-04-26T02:43:36;91045.63;;;6.00;100.00
34506;BME280;20748;42.632;23.198;2023-04-26T02:46:08;91039.28;;;6.06;100.00
34506;BME280;20748;42.632;23.198;2023-04-26T02:48:40;91037.81;;;6.14;100.00
34506;BME280;20748;42.632;23.198;2023-04-26T02:51:13;91026.16;;;6.25;100.00
34506;BME280;20748;42.632;23.198;2023-04-26T02:53:45;91022.81;;;6.25;100.00
34506;BME280;20748;42.632;23.198;2023-04-26T02:56:18;91012.47;;;6.25;100.00
34506;BME280;20748;42.632;23.198;2023-04-26T02:58:51;91029.28;;;6.36;100.00
34506;BME280;20748;42.632;23.198;2023-04-26T03:01:24;91025.34;;;6.39;100.00
34506;BME280;20748;42.632;23.198;2023-04-26T03:03:56;91022.03;;;6.47;100.00
34506;BME280;20748;42.632;23.198;2023-04-26T03:06:29;91014.84;;;6.44;100.00
34506;BME280;20748;42.632;23.198;2023-04-26T03:09:01;91012.84;;;6.41;100.00
34506;BME280;20748;42.632;23.198;2023-04-26T03:11:37;91007.56;;;6.23;100.00
34506;BME280;20748;42.632;23.198;2023-04-26T03:14:09;91011.28;;;6.31;100.00
34506;BME280;20748;42.632;23.198;2023-04-26T03:16:42;91019.50;;;6.33;100.00
34506;BME280;20748;42.632;23.198;2023-04-26T03:19:15;91015.00;;;6.39;100.00
34506;BME280;20748;42.632;23.198;2023-04-26T03:21:48;91021.41;;;6.41;100.00
34506;BME280;20748;42.632;23.198;2023-04-26T03:24:21;91018.88;;;6.50;100.00
34506;BME280;20748;42.632;23.198;2023-04-26T03:26:55;91022.50;;;6.49;100.00
34506;BME280;20748;42.632;23.198;2023-04-26T03:29:29;91017.78;;;6.51;100.00
34506;BME280;20748;42.632;23.198;2023-04-26T03:32:01;91023.44;;;6.53;100.00
34506;BME280;20748;42.632;23.198;2023-04-26T03:34:33;91022.66;;;6.53;100.00
34506;BME280;20748;42.632;23.198;2023-04-26T03:37:06;91034.59;;;6.54;100.00
34506;BME280;20748;42.632;23.198;2023-04-26T03:39:38;91033.81;;;6.53;100.00
34506;BME280;20748;42.632;23.198;2023-04-26T03:42:11;91024.38;;;6.57;100.00
34506;BME280;20748;42.632;23.198;2023-04-26T03:44:44;91034.28;;;6.55;100.00
34506;BME280;20748;42.632;23.198;2023-04-26T03:47:16;91033.34;;;6.51;100.00
34506;BME280;20748;42.632;23.198;2023-04-26T03:49:49;91013.25;;;6.34;100.00
34506;BME280;20748;42.632;23.198;2023-04-26T03:52:21;91038.66;;;6.46;100.00
34506;BME280;20748;42.632;23.198;2023-04-26T03:54:53;91042.75;;;6.47;100.00
34506;BME280;20748;42.632;23.198;2023-04-26T03:57:27;91054.94;;;6.47;100.00
34506;BME280;20748;42.632;23.198;2023-04-26T04:00:00;91055.25;;;6.45;100.00
34506;BME280;20748;42.632;23.198;2023-04-26T04:02:33;91058.31;;;6.47;100.00
34506;BME280;20748;42.632;23.198;2023-04-26T04:05:06;91046.13;;;6.48;100.00
34506;BME280;20748;42.632;23.198;2023-04-26T04:07:39;91049.69;;;6.61;100.00
34506;BME280;20748;42.632;23.198;2023-04-26T04:10:11;91049.56;;;6.66;100.00
34506;BME280;20748;42.632;23.198;2023-04-26T04:12:46;91057.84;;;6.68;100.00
34506;BME280;20748;42.632;23.198;2023-04-26T04:15:19;91049.56;;;6.66;100.00
34506;BME280;20748;42.632;23.198;2023-04-26T04:17:53;91047.88;;;6.61;100.00
34506;BME280;20748;42.632;23.198;2023-04-26T04:20:26;91051.75;;;6.72;100.00
34506;BME280;20748;42.632;23.198;2023-04-26T04:23:00;91062.75;;;6.78;100.00
34506;BME280;20748;42.632;23.198;2023-04-26T04:25:35;91052.34;;;6.69;100.00
34506;BME280;20748;42.632;23.198;2023-04-26T04:28:12;91069.47;;;6.79;100.00
34506;BME280;20748;42.632;23.198;2023-04-26T04:30:45;91070.28;;;6.89;100.00
34506;BME280;20748;42.632;23.198;2023-04-26T04:33:18;91065.88;;;6.89;100.00
34506;BME280;20748;42.632;23.198;2023-04-26T04:35:50;91068.84;;;6.74;100.00
34506;BME280;20748;42.632;23.198;2023-04-26T04:38:23;91075.03;;;6.87;100.00
34506;BME280;20748;42.632;23.198;2023-04-26T04:40:57;91075.47;;;6.89;100.00
34506;BME280;20748;42.632;23.198;2023-04-26T04:43:30;91076.75;;;7.00;100.00
34506;BME280;20748;42.632;23.198;2023-04-26T04:46:02;91085.66;;;7.08;100.00
34506;BME280;20748;42.632;23.198;2023-04-26T04:48:35;91082.16;;;7.12;100.00
34506;BME280;20748;42.632;23.198;2023-04-26T04:51:09;91077.41;;;7.15;100.00
34506;BME280;20748;42.632;23.198;2023-04-26T04:53:42;91080.38;;;7.22;100.00
34506;BME280;20748;42.632;23.198;2023-04-26T04:56:15;91080.53;;;7.25;100.00
34506;BME280;20748;42.632;23.198;2023-04-26T04:58:49;91080.56;;;7.34;100.00
34506;BME280;20748;42.632;23.198;2023-04-26T05:01:23;91079.38;;;7.41;100.00
34506;BME280;20748;42.632;23.198;2023-04-26T05:04:00;91080.75;;;7.47;100.00
34506;BME280;20748;42.632;23.198;2023-04-26T05:06:33;91082.75;;;7.50;100.00
34506;BME280;20748;42.632;23.198;2023-04-26T05:09:05;91081.53;;;7.56;100.00
34506;BME280;20748;42.632;23.198;2023-04-26T05:11:38;91084.00;;;7.61;100.00
34506;BME280;20748;42.632;23.198;2023-04-26T05:14:13;91081.56;;;7.65;100.00
34506;BME280;20748;42.632;23.198;2023-04-26T05:16:46;91079.59;;;7.71;100.00
34506;BME280;20748;42.632;23.198;2023-04-26T05:19:19;91082.66;;;7.73;100.00
34506;BME280;20748;42.632;23.198;2023-04-26T05:21:52;91078.53;;;7.72;100.00
34506;BME280;20748;42.632;23.198;2023-04-26T05:24:24;91081.56;;;7.74;100.00
34506;BME280;20748;42.632;23.198;2023-04-26T05:26:57;91085.25;;;7.73;100.00
34506;BME280;20748;42.632;23.198;2023-04-26T05:29:33;91090.94;;;7.84;100.00
34506;BME280;20748;42.632;23.198;2023-04-26T05:32:10;91091.09;;;7.96;100.00
34506;BME280;20748;42.632;23.198;2023-04-26T05:35:12;91097.06;;;8.14;100.00
34506;BME280;20748;42.632;23.198;2023-04-26T05:37:45;91089.75;;;8.25;100.00
34506;BME280;20748;42.632;23.198;2023-04-26T05:40:18;91095.56;;;8.40;100.00
34506;BME280;20748;42.632;23.198;2023-04-26T05:42:51;91101.69;;;8.44;100.00
34506;BME280;20748;42.632;23.198;2023-04-26T05:45:25;91107.47;;;8.50;100.00
34506;BME280;20748;42.632;23.198;2023-04-26T05:47:57;91103.38;;;8.57;100.00
34506;BME280;20748;42.632;23.198;2023-04-26T05:50:30;91097.25;;;8.62;100.00
34506;BME280;20748;42.632;23.198;2023-04-26T05:53:03;91103.53;;;8.70;100.00
34506;BME280;20748;42.632;23.198;2023-04-26T05:55:36;91088.06;;;8.73;100.00
34506;BME280;20748;42.632;23.198;2023-04-26T05:58:08;91107.78;;;8.92;100.00
34506;BME280;20748;42.632;23.198;2023-04-26T06:00:42;91106.41;;;8.86;100.00
34506;BME280;20748;42.632;23.198;2023-04-26T06:03:15;91108.13;;;8.64;100.00
34506;BME280;20748;42.632;23.198;2023-04-26T06:05:48;91115.31;;;8.67;100.00
34506;BME280;20748;42.632;23.198;2023-04-26T06:08:20;91109.66;;;8.65;100.00
34506;BME280;20748;42.632;23.198;2023-04-26T06:10:54;91117.47;;;8.56;99.46
34506;BME280;20748;42.632;23.198;2023-04-26T06:13:26;91110.72;;;8.73;100.00
34506;BME280;20748;42.632;23.198;2023-04-26T06:15:59;91118.50;;;8.91;100.00
34506;BME280;20748;42.632;23.198;2023-04-26T06:18:32;91115.53;;;9.19;100.00
34506;BME280;20748;42.632;23.198;2023-04-26T06:21:05;91113.94;;;9.35;100.00
34506;BME280;20748;42.632;23.198;2023-04-26T06:23:37;91121.00;;;9.35;97.36
34506;BME280;20748;42.632;23.198;2023-04-26T06:26:10;91117.19;;;9.32;100.00
34506;BME280;20748;42.632;23.198;2023-04-26T06:28:43;91124.34;;;9.44;100.00
34506;BME280;20748;42.632;23.198;2023-04-26T06:31:16;91130.00;;;9.46;97.97
34506;BME280;20748;42.632;23.198;2023-04-26T06:33:49;91127.28;;;9.34;91.99
34506;BME280;20748;42.632;23.198;2023-04-26T06:36:22;91129.91;;;9.25;95.70
34506;BME280;20748;42.632;23.198;2023-04-26T06:38:55;91126.25;;;9.17;94.27
34506;BME280;20748;42.632;23.198;2023-04-26T06:41:27;91121.66;;;9.14;96.58
34506;BME280;20748;42.632;23.198;2023-04-26T06:44:00;91129.28;;;9.28;94.83
34506;BME280;20748;42.632;23.198;2023-04-26T06:46:36;91139.88;;;9.14;92.66
34506;BME280;20748;42.632;23.198;2023-04-26T06:49:08;91130.38;;;9.27;92.55
34506;BME280;20748;42.632;23.198;2023-04-26T06:51:42;91134.59;;;9.40;91.87
34506;BME280;20748;42.632;23.198;2023-04-26T06:54:15;91141.66;;;9.40;93.86
34506;BME280;20748;42.632;23.198;2023-04-26T06:56:47;91148.38;;;9.50;87.74
34506;BME280;20748;42.632;23.198;2023-04-26T06:59:19;91154.81;;;9.52;86.04
34506;BME280;20748;42.632;23.198;2023-04-26T07:01:52;91147.25;;;9.60;88.09
34506;BME280;20748;42.632;23.198;2023-04-26T07:04:25;91152.28;;;9.74;82.13
34506;BME280;20748;42.632;23.198;2023-04-26T07:06:58;91157.72;;;9.90;82.81
34506;BME280;20748;42.632;23.198;2023-04-26T07:09:30;91153.97;;;10.00;83.02
34506;BME280;20748;42.632;23.198;2023-04-26T07:12:03;91162.09;;;9.98;78.10
34506;BME280;20748;42.632;23.198;2023-04-26T07:14:35;91161.75;;;10.08;79.04
34506;BME280;20748;42.632;23.198;2023-04-26T07:17:11;91174.72;;;9.87;73.50
34506;BME280;20748;42.632;23.198;2023-04-26T07:19:44;91169.41;;;9.75;75.11
34506;BME280;20748;42.632;23.198;2023-04-26T07:22:16;91169.88;;;9.77;76.59
34506;BME280;20748;42.632;23.198;2023-04-26T07:24:48;91164.97;;;9.75;76.26
34506;BME280;20748;42.632;23.198;2023-04-26T07:27:21;91168.13;;;9.51;73.33
34506;BME280;20748;42.632;23.198;2023-04-26T07:29:54;91161.63;;;9.66;73.97
34506;BME280;20748;42.632;23.198;2023-04-26T07:32:27;91164.19;;;9.84;74.78
34506;BME280;20748;42.632;23.198;2023-04-26T07:35:00;91165.50;;;9.60;75.38
34506;BME280;20748;42.632;23.198;2023-04-26T07:37:33;91170.94;;;9.76;71.52
34506;BME280;20748;42.632;23.198;2023-04-26T07:40:07;91171.00;;;9.58;75.48
34506;BME280;20748;42.632;23.198;2023-04-26T07:42:41;91173.41;;;9.72;72.79
34506;BME280;20748;42.632;23.198;2023-04-26T07:45:13;91168.66;;;9.74;74.52
34506;BME280;20748;42.632;23.198;2023-04-26T07:47:47;91178.81;;;9.97;73.61
34506;BME280;20748;42.632;23.198;2023-04-26T07:50:19;91179.81;;;10.14;72.99
34506;BME280;20748;42.632;23.198;2023-04-26T07:52:52;91177.66;;;10.16;72.29
34506;BME280;20748;42.632;23.198;2023-04-26T07:55:24;91179.03;;;10.13;71.77
34506;BME280;20748;42.632;23.198;2023-04-26T07:57:57;91171.06;;;10.18;71.50
34506;BME280;20748;42.632;23.198;2023-04-26T08:00:29;91171.13;;;10.31;72.34
34506;BME280;20748;42.632;23.198;2023-04-26T08:03:02;91178.00;;;10.44;72.13
34506;BME280;20748;42.632;23.198;2023-04-26T08:05:35;91175.84;;;10.68;71.84
34506;BME280;20748;42.632;23.198;2023-04-26T08:08:08;91172.00;;;10.44;72.77
34506;BME280;20748;42.632;23.198;2023-04-26T08:10:40;91179.50;;;10.15;73.72
34506;BME280;20748;42.632;23.198;2023-04-26T08:13:13;91175.41;;;10.36;71.13
34506;BME280;20748;42.632;23.198;2023-04-26T08:15:45;91171.38;;;10.47;71.28
34506;BME280;20748;42.632;23.198;2023-04-26T08:18:18;91172.97;;;10.60;72.34
34506;BME280;20748;42.632;23.198;2023-04-26T08:20:51;91170.63;;;10.68;69.36
34506;BME280;20748;42.632;23.198;2023-04-26T08:23:25;91174.97;;;10.64;66.90
34506;BME280;20748;42.632;23.198;2023-04-26T08:25:59;91172.97;;;10.82;68.26
34506;BME280;20748;42.632;23.198;2023-04-26T08:28:31;91171.50;;;10.72;69.53
34506;BME280;20748;42.632;23.198;2023-04-26T08:31:04;91168.13;;;10.93;70.58
34506;BME280;20748;42.632;23.198;2023-04-26T08:33:37;91172.19;;;10.81;70.55
34506;BME280;20748;42.632;23.198;2023-04-26T08:36:09;91174.16;;;11.06;69.51
34506;BME280;20748;42.632;23.198;2023-04-26T08:38:43;91174.38;;;10.79;67.26
34506;BME280;20748;42.632;23.198;2023-04-26T08:41:21;91171.41;;;10.68;68.72
34506;BME280;20748;42.632;23.198;2023-04-26T08:43:55;91176.78;;;10.84;67.39
34506;BME280;20748;42.632;23.198;2023-04-26T08:46:31;91170.09;;;10.96;65.71
34506;BME280;20748;42.632;23.198;2023-04-26T08:49:14;91173.78;;;11.16;68.81
34506;BME280;20748;42.632;23.198;2023-04-26T08:51:50;91170.22;;;11.33;66.70
34506;BME280;20748;42.632;23.198;2023-04-26T08:54:24;91183.78;;;11.14;63.32
34506;BME280;20748;42.632;23.198;2023-04-26T08:56:58;91174.34;;;11.34;62.48
34506;BME280;20748;42.632;23.198;2023-04-26T08:59:32;91166.47;;;11.55;66.67
34506;BME280;20748;42.632;23.198;2023-04-26T09:02:05;91166.94;;;11.70;65.67
34506;BME280;20748;42.632;23.198;2023-04-26T09:04:39;91177.97;;;11.42;67.34
34506;BME280;20748;42.632;23.198;2023-04-26T09:07:18;91172.59;;;11.26;61.94
34506;BME280;20748;42.632;23.198;2023-04-26T09:09:53;91172.91;;;11.24;66.54
34506;BME280;20748;42.632;23.198;2023-04-26T09:12:28;91177.69;;;10.88;65.24
34506;BME280;20748;42.632;23.198;2023-04-26T09:15:01;91179.88;;;10.99;69.83
34506;BME280;20748;42.632;23.198;2023-04-26T09:17:36;91178.81;;;11.00;70.31
34506;BME280;20748;42.632;23.198;2023-04-26T09:20:21;91176.72;;;10.93;72.85
34506;BME280;20748;42.632;23.198;2023-04-26T09:23:03;91174.97;;;11.19;70.88
34506;BME280;20748;42.632;23.198;2023-04-26T09:25:36;91187.63;;;11.29;70.33
34506;BME280;20748;42.632;23.198;2023-04-26T09:28:19;91177.94;;;11.30;71.85
34506;BME280;20748;42.632;23.198;2023-04-26T09:30:51;91187.31;;;11.43;65.31
34506;BME280;20748;42.632;23.198;2023-04-26T09:33:24;91181.09;;;11.69;64.96
34506;BME280;20748;42.632;23.198;2023-04-26T09:36:10;91182.75;;;11.99;65.92
34506;BME280;20748;42.632;23.198;2023-04-26T09:38:42;91176.56;;;12.16;66.53
34506;BME280;20748;42.632;23.198;2023-04-26T09:41:15;91184.22;;;12.08;64.31
34506;BME280;20748;42.632;23.198;2023-04-26T09:43:49;91162.72;;;12.15;59.39
34506;BME280;20748;42.632;23.198;2023-04-26T09:46:22;91168.63;;;12.25;60.84
34506;BME280;20748;42.632;23.198;2023-04-26T09:49:01;91165.44;;;12.19;62.25
34506;BME280;20748;42.632;23.198;2023-04-26T09:51:34;91161.81;;;11.86;59.89
34506;BME280;20748;42.632;23.198;2023-04-26T09:54:07;91171.19;;;11.87;61.13
34506;BME280;20748;42.632;23.198;2023-04-26T09:56:39;91163.34;;;11.75;59.06
34506;BME280;20748;42.632;23.198;2023-04-26T09:59:12;91154.19;;;11.81;60.66
34506;BME280;20748;42.632;23.198;2023-04-26T10:01:44;91172.47;;;11.81;60.81
34506;BME280;20748;42.632;23.198;2023-04-26T10:04:16;91161.22;;;12.14;62.56
34506;BME280;20748;42.632;23.198;2023-04-26T10:06:50;91167.22;;;12.15;61.73
34506;BME280;20748;42.632;23.198;2023-04-26T10:09:22;91167.75;;;12.08;60.61
34506;BME280;20748;42.632;23.198;2023-04-26T10:11:55;91166.97;;;12.20;59.16
34506;BME280;20748;42.632;23.198;2023-04-26T10:14:28;91167.50;;;12.38;61.13
34506;BME280;20748;42.632;23.198;2023-04-26T10:17:02;91163.78;;;12.39;59.37
34506;BME280;20748;42.632;23.198;2023-04-26T10:19:35;91161.94;;;12.40;59.71
34506;BME280;20748;42.632;23.198;2023-04-26T10:22:12;91153.88;;;12.45;58.36
34506;BME280;20748;42.632;23.198;2023-04-26T10:24:47;91163.03;;;12.51;59.14
34506;BME280;20748;42.632;23.198;2023-04-26T10:27:50;91168.47;;;12.46;56.44
34506;BME280;20748;42.632;23.198;2023-04-26T10:30:23;91168.06;;;12.19;55.53
34506;BME280;20748;42.632;23.198;2023-04-26T10:33:13;91159.00;;;12.29;56.68
34506;BME280;20748;42.632;23.198;2023-04-26T10:36:06;91167.75;;;12.20;61.79
34506;BME280;20748;42.632;23.198;2023-04-26T10:38:41;91162.50;;;12.33;60.56
34506;BME280;20748;42.632;23.198;2023-04-26T10:41:35;91172.09;;;12.41;55.98
34506;BME280;20748;42.632;23.198;2023-04-26T10:44:38;91164.19;;;12.66;56.75
34506;BME280;20748;42.632;23.198;2023-04-26T10:47:26;91164.81;;;12.22;59.19
34506;BME280;20748;42.632;23.198;2023-04-26T10:50:07;91168.84;;;12.07;57.14
34506;BME280;20748;42.632;23.198;2023-04-26T10:53:04;91166.72;;;11.88;55.10
34506;BME280;20748;42.632;23.198;2023-04-26T10:55:41;91167.56;;;11.67;55.05
34506;BME280;20748;42.632;23.198;2023-04-26T10:58:27;91170.59;;;11.44;55.45
34506;BME280;20748;42.632;23.198;2023-04-26T11:01:03;91151.97;;;11.58;57.32
34506;BME280;20748;42.632;23.198;2023-04-26T11:03:37;91161.16;;;11.64;57.82
34506;BME280;20748;42.632;23.198;2023-04-26T11:06:10;91163.53;;;11.69;58.49
34506;BME280;20748;42.632;23.198;2023-04-26T11:08:46;91163.69;;;11.98;59.59
34506;BME280;20748;42.632;23.198;2023-04-26T11:11:24;91156.28;;;12.00;59.44
34506;BME280;20748;42.632;23.198;2023-04-26T11:14:00;91162.50;;;11.95;52.65
34506;BME280;20748;42.632;23.198;2023-04-26T11:16:33;91170.03;;;11.51;51.54
34506;BME280;20748;42.632;23.198;2023-04-26T11:19:05;91158.47;;;11.39;52.43
34506;BME280;20748;42.632;23.198;2023-04-26T11:21:38;91154.19;;;11.68;55.60
34506;BME280;20748;42.632;23.198;2023-04-26T11:24:13;91163.59;;;11.94;59.54
34506;BME280;20748;42.632;23.198;2023-04-26T11:26:51;91157.47;;;12.03;56.81
34506;BME280;20748;42.632;23.198;2023-04-26T11:29:24;91159.47;;;12.31;54.07
34506;BME280;20748;42.632;23.198;2023-04-26T11:31:57;91159.66;;;12.38;54.12
34506;BME280;20748;42.632;23.198;2023-04-26T11:34:34;91158.56;;;12.39;53.12
34506;BME280;20748;42.632;23.198;2023-04-26T11:37:07;91162.16;;;12.47;55.34
34506;BME280;20748;42.632;23.198;2023-04-26T11:39:39;91166.94;;;12.57;53.07
34506;BME280;20748;42.632;23.198;2023-04-26T11:42:12;91158.00;;;12.58;52.32
34506;BME280;20748;42.632;23.198;2023-04-26T11:44:44;91160.88;;;12.28;52.15
34506;BME280;20748;42.632;23.198;2023-04-26T11:47:17;91168.81;;;12.32;52.11
34506;BME280;20748;42.632;23.198;2023-04-26T11:49:50;91176.34;;;12.46;50.02
34506;BME280;20748;42.632;23.198;2023-04-26T11:52:23;91171.78;;;12.18;52.24
34506;BME280;20748;42.632;23.198;2023-04-26T11:55:00;91160.31;;;12.22;51.49
34506;BME280;20748;42.632;23.198;2023-04-26T11:57:35;91150.88;;;12.05;52.14
34506;BME280;20748;42.632;23.198;2023-04-26T12:00:09;91162.50;;;12.20;55.95
34506;BME280;20748;42.632;23.198;2023-04-26T12:02:46;91172.75;;;12.38;56.51
34506;BME280;20748;42.632;23.198;2023-04-26T12:05:23;91168.59;;;12.37;55.11
34506;BME280;20748;42.632;23.198;2023-04-26T12:07:57;91162.94;;;12.22;51.31
34506;BME280;20748;42.632;23.198;2023-04-26T12:10:33;91154.25;;;12.18;51.42
34506;BME280;20748;42.632;23.198;2023-04-26T12:13:06;91155.22;;;12.26;51.39
34506;BME280;20748;42.632;23.198;2023-04-26T12:15:40;91153.00;;;12.41;51.98
34506;BME280;20748;42.632;23.198;2023-04-26T12:18:12;91151.28;;;12.45;53.39
34506;BME280;20748;42.632;23.198;2023-04-26T12:20:45;91157.13;;;12.54;48.94
34506;BME280;20748;42.632;23.198;2023-04-26T12:23:17;91156.78;;;12.56;52.91
34506;BME280;20748;42.632;23.198;2023-04-26T12:25:54;91158.13;;;12.49;50.49
34506;BME280;20748;42.632;23.198;2023-04-26T12:28:27;91152.06;;;12.20;50.76
34506;BME280;20748;42.632;23.198;2023-04-26T12:31:00;91154.25;;;12.18;50.94
34506;BME280;20748;42.632;23.198;2023-04-26T12:33:34;91143.53;;;12.36;52.40
34506;BME280;20748;42.632;23.198;2023-04-26T12:36:08;91144.22;;;12.08;51.19
34506;BME280;20748;42.632;23.198;2023-04-26T12:38:40;91141.38;;;12.26;51.57
34506;BME280;20748;42.632;23.198;2023-04-26T12:41:13;91136.28;;;12.58;52.64
34506;BME280;20748;42.632;23.198;2023-04-26T12:43:46;91150.56;;;12.60;52.47
34506;BME280;20748;42.632;23.198;2023-04-26T12:46:18;91146.00;;;12.57;49.64
34506;BME280;20748;42.632;23.198;2023-04-26T12:48:52;91141.16;;;12.72;51.08
34506;BME280;20748;42.632;23.198;2023-04-26T12:51:24;91148.38;;;13.03;50.38
34506;BME280;20748;42.632;23.198;2023-04-26T12:53:57;91143.28;;;12.95;52.25
34506;BME280;20748;42.632;23.198;2023-04-26T12:56:30;91141.91;;;12.85;52.22
34506;BME280;20748;42.632;23.198;2023-04-26T12:59:03;91153.50;;;13.00;49.59
34506;BME280;20748;42.632;23.198;2023-04-26T13:01:35;91151.63;;;13.13;48.69
34506;BME280;20748;42.632;23.198;2023-04-26T13:04:08;91151.91;;;12.95;49.54
34506;BME280;20748;42.632;23.198;2023-04-26T13:06:40;91144.72;;;13.21;51.25
34506;BME280;20748;42.632;23.198;2023-04-26T13:09:13;91142.34;;;13.15;51.67
34506;BME280;20748;42.632;23.198;2023-04-26T13:11:45;91145.97;;;12.98;50.66
34506;BME280;20748;42.632;23.198;2023-04-26T13:14:18;91143.28;;;12.95;52.58
34506;BME280;20748;42.632;23.198;2023-04-26T13:16:51;91151.94;;;13.11;53.83
34506;BME280;20748;42.632;23.198;2023-04-26T13:19:24;91155.44;;;12.74;50.27
34506;BME280;20748;42.632;23.198;2023-04-26T13:21:56;91159.38;;;12.68;55.25
34506;BME280;20748;42.632;23.198;2023-04-26T13:24:29;91164.31;;;12.57;51.19